Time;durP1;ratioP1;P1;durP2;ratioP2;P2;SDS_P1;SDS_P2;PMS_P1;PMS_P2;Temp;Humidity;BMP_temperature;BMP_pressure;BME280_temperature;BME280_humidity;BME280_pressure;Samples;Min_cycle;Max_cycle;Signal;HPM_P1;HPM_P2
2022/10/01 00:02:06;;;;;;;3.08;2.25;;;;;;;15.99;88.54;98896.23;1737314;81;20994;-72
2022/10/01 00:04:35;;;;;;;8.50;2.15;;;;;;;16.02;88.28;98903.34;1730619;81;21007;-72
2022/10/01 00:07:03;;;;;;;5.67;2.30;;;;;;;16.03;88.03;98900.14;1739856;81;20950;-72
2022/10/01 00:09:31;;;;;;;2.77;2.58;;;;;;;16.01;87.84;98903.02;1738115;81;21078;-71
2022/10/01 00:11:58;;;;;;;2.87;2.65;;;;;;;15.99;87.68;98902.42;1721099;81;21017;-71
2022/10/01 00:14:26;;;;;;;2.70;2.50;;;;;;;15.98;87.69;98910.16;1723668;81;20982;-72
2022/10/01 00:16:53;;;;;;;4.05;2.40;;;;;;;16.02;87.40;98909.22;1721353;81;20939;-71
2022/10/01 00:19:20;;;;;;;2.92;2.72;;;;;;;16.03;87.17;98906.30;1722763;81;21454;-71
2022/10/01 00:21:47;;;;;;;3.02;2.45;;;;;;;16.04;87.02;98911.98;1687032;83;21157;-72
2022/10/01 00:24:13;;;;;;;3.80;3.00;;;;;;;16.05;86.83;98911.47;1686288;83;20907;-71
2022/10/01 00:26:40;;;;;;;2.80;2.60;;;;;;;16.05;86.74;98916.31;1692303;83;20906;-71
2022/10/01 00:29:11;;;;;;;2.85;2.65;;;;;;;16.05;86.61;98908.27;1692872;83;21056;-71
2022/10/01 00:31:37;;;;;;;4.75;2.80;;;;;;;16.06;86.41;98913.92;1693058;83;20938;-71
2022/10/01 00:34:04;;;;;;;3.00;2.70;;;;;;;16.06;86.18;98909.89;1692453;83;21215;-72
2022/10/01 00:36:31;;;;;;;4.17;2.80;;;;;;;16.02;85.97;98908.70;1692855;83;21002;-71
2022/10/01 00:38:59;;;;;;;4.12;2.75;;;;;;;15.98;85.86;98914.19;1692501;83;21614;-71
2022/10/01 00:41:30;;;;;;;2.67;2.47;;;;;;;15.93;85.92;98910.51;1689605;83;21479;-72
2022/10/01 00:44:25;;;;;;;6.28;3.15;;;;;;;15.90;85.87;98907.74;1706519;82;21143;-70
2022/10/01 00:46:52;;;;;;;3.45;3.25;;;;;;;15.86;85.95;98914.59;1706547;82;21176;-71
2022/10/01 00:49:24;;;;;;;3.83;2.60;;;;;;;15.86;86.07;98913.26;1702400;82;20932;-71
2022/10/01 00:52:01;;;;;;;3.77;2.60;;;;;;;15.88;86.05;98909.83;1710865;82;20901;-71
2022/10/01 00:54:39;;;;;;;4.58;2.58;;;;;;;15.92;85.93;98912.39;1700958;82;21115;-72
2022/10/01 00:57:05;;;;;;;2.40;2.30;;;;;;;15.94;85.71;98903.61;1706913;82;20962;-72
2022/10/01 00:59:32;;;;;;;2.50;2.30;;;;;;;15.97;85.48;98909.05;1706149;82;21152;-73
2022/10/01 01:02:00;;;;;;;2.08;1.98;;;;;;;15.97;85.30;98912.56;1710107;82;21006;-71
2022/10/01 01:04:26;;;;;;;2.70;1.65;;;;;;;15.98;85.14;98911.50;1707303;82;21031;-71
2022/10/01 01:06:56;;;;;;;1.75;1.55;;;;;;;15.99;84.93;98911.81;1712652;82;20979;-71
2022/10/01 01:09:28;;;;;;;1.35;1.32;;;;;;;15.98;84.53;98898.09;1701947;82;21088;-72
2022/10/01 01:12:23;;;;;;;1.87;1.40;;;;;;;15.97;84.22;98903.69;1700130;82;21087;-72
2022/10/01 01:15:42;;;;;;;1.05;1.05;;;;;;;15.93;83.99;98901.95;1713188;82;21416;-71
2022/10/01 01:18:14;;;;;;;1.20;1.07;;;;;;;15.92;83.72;98903.01;1706711;82;20978;-72
2022/10/01 01:21:21;;;;;;;0.98;0.93;;;;;;;15.91;83.46;98904.03;1738177;80;20907;-72
2022/10/01 01:24:20;;;;;;;1.37;1.27;;;;;;;15.95;83.21;98900.41;1716722;83;20957;-72
2022/10/01 01:27:15;;;;;;;2.00;1.17;;;;;;;15.96;83.01;98898.84;1722910;81;21161;-71
2022/10/01 01:29:55;;;;;;;1.07;1.07;;;;;;;15.98;82.72;98905.34;1732094;81;20865;-72
2022/10/01 01:32:27;;;;;;;1.00;1.00;;;;;;;15.98;82.38;98903.45;1716423;81;21441;-72
2022/10/01 01:34:54;;;;;;;0.80;0.80;;;;;;;15.97;82.21;98903.69;1722223;81;20995;-72
2022/10/01 01:37:23;;;;;;;1.30;1.12;;;;;;;15.97;82.12;98901.83;1720837;81;20848;-72
2022/10/01 01:39:52;;;;;;;1.62;1.27;;;;;;;15.97;81.97;98900.48;1722349;81;21139;-72
2022/10/01 01:42:30;;;;;;;1.27;1.17;;;;;;;15.99;81.83;98905.11;1722182;81;20963;-71
2022/10/01 01:44:59;;;;;;;1.35;1.25;;;;;;;16.00;81.75;98905.42;1721715;81;21589;-72
2022/10/01 01:47:32;;;;;;;1.15;1.15;;;;;;;15.99;81.59;98911.81;1738969;81;21566;-72
2022/10/01 01:49:56;;;;;;;1.52;1.40;;;;;;;16.00;81.61;98905.94;1740668;80;20938;-73
2022/10/01 01:52:22;;;;;;;1.40;1.30;;;;;;;16.00;81.60;98913.98;1736195;81;21122;-72
2022/10/01 01:54:49;;;;;;;1.60;1.50;;;;;;;16.03;81.55;98920.27;1722775;82;20968;-71
2022/10/01 01:57:17;;;;;;;1.70;1.60;;;;;;;16.02;81.49;98918.09;1717274;82;21526;-71
2022/10/01 01:59:44;;;;;;;2.45;1.80;;;;;;;16.02;81.38;98918.09;1738948;81;21021;-72
2022/10/01 02:02:25;;;;;;;2.20;1.77;;;;;;;15.99;81.45;98915.02;1762378;80;21092;-72
2022/10/01 02:05:04;;;;;;;2.37;2.17;;;;;;;16.01;81.53;98916.95;1737272;81;21069;-71
2022/10/01 02:08:12;;;;;;;2.30;2.20;;;;;;;16.00;81.66;98922.86;1747870;81;20904;-70
2022/10/01 02:10:56;;;;;;;4.85;2.00;;;;;;;15.99;81.74;98923.89;1738958;81;20864;-71
2022/10/01 02:13:59;;;;;;;4.17;2.52;;;;;;;15.97;81.83;98917.92;1724800;81;20973;-73
2022/10/01 02:16:44;;;;;;;4.90;2.58;;;;;;;15.96;81.97;98933.71;1751180;80;20895;-71
2022/10/01 02:19:37;;;;;;;2.45;2.25;;;;;;;15.93;82.09;98934.14;1744575;81;22064;-71
2022/10/01 02:22:14;;;;;;;4.67;1.90;;;;;;;15.92;82.17;98939.22;1739906;81;20968;-71
2022/10/01 02:24:51;;;;;;;2.15;2.05;;;;;;;15.90;82.29;98931.88;1739686;81;20916;-72
2022/10/01 02:27:28;;;;;;;3.67;2.30;;;;;;;15.92;82.27;98936.53;1740240;81;20897;-72
2022/10/01 02:29:56;;;;;;;3.87;2.25;;;;;;;15.88;82.27;98930.46;1737970;81;21045;-71
2022/10/01 02:32:23;;;;;;;2.08;1.98;;;;;;;15.86;82.14;98929.86;1732837;81;21129;-71
2022/10/01 02:34:51;;;;;;;2.90;1.75;;;;;;;15.83;82.09;98933.80;1734684;81;20926;-72
2022/10/01 02:37:21;;;;;;;2.67;2.00;;;;;;;15.83;82.07;98937.83;1739978;81;20973;-71
2022/10/01 02:39:47;;;;;;;2.35;1.70;;;;;;;15.85;81.98;98944.33;1733961;81;20935;-71
2022/10/01 02:42:15;;;;;;;1.82;1.72;;;;;;;15.86;81.84;98935.23;1738380;81;21494;-72
2022/10/01 02:44:41;;;;;;;2.08;1.98;;;;;;;15.87;81.75;98941.73;1739736;81;21142;-72
2022/10/01 02:47:15;;;;;;;3.30;1.62;;;;;;;15.88;81.48;98939.33;1726686;81;20910;-72
2022/10/01 02:49:42;;;;;;;2.33;2.00;;;;;;;15.86;81.29;98937.39;1721530;81;21433;-71
2022/10/01 02:52:22;;;;;;;2.00;1.90;;;;;;;15.87;81.13;98942.25;1739900;81;21016;-72
2022/10/01 02:55:04;;;;;;;2.47;2.27;;;;;;;15.89;80.94;98936.14;1739825;81;20938;-71
2022/10/01 02:57:31;;;;;;;3.25;3.05;;;;;;;15.89;80.83;98936.14;1740575;80;21880;-72
2022/10/01 03:00:00;;;;;;;2.25;2.15;;;;;;;15.90;80.66;98941.81;1736929;81;20984;-71
2022/10/01 03:02:28;;;;;;;2.15;2.05;;;;;;;15.88;80.56;98950.06;1739914;81;21537;-72
2022/10/01 03:04:57;;;;;;;2.25;2.15;;;;;;;15.89;80.43;98943.67;1739866;81;21514;-72
2022/10/01 03:07:25;;;;;;;5.00;2.70;;;;;;;15.89;80.27;98958.42;1732351;81;21485;-73
2022/10/01 03:09:51;;;;;;;2.30;2.20;;;;;;;15.89;80.11;98955.74;1738867;81;21482;-72
2022/10/01 03:12:19;;;;;;;2.58;2.37;;;;;;;15.89;80.11;98953.06;1729107;81;21476;-72
2022/10/01 03:14:45;;;;;;;2.67;2.50;;;;;;;15.90;80.13;98949.86;1740035;81;20928;-71
2022/10/01 03:17:12;;;;;;;2.77;2.25;;;;;;;15.90;80.20;98957.37;1737778;81;20994;-72
2022/10/01 03:19:39;;;;;;;2.92;2.72;;;;;;;15.91;80.21;98956.34;1737631;81;21497;-71
2022/10/01 03:22:06;;;;;;;3.00;2.10;;;;;;;15.91;80.15;98951.48;1713407;82;21039;-71
2022/10/01 03:24:33;;;;;;;2.33;2.20;;;;;;;15.90;80.19;98952.00;1702942;82;21020;-72
2022/10/01 03:27:00;;;;;;;2.52;2.33;;;;;;;15.90;80.26;98952.55;1701163;82;20996;-73
2022/10/01 03:29:26;;;;;;;2.17;2.08;;;;;;;15.91;80.38;98948.81;1704592;82;20941;-71
2022/10/01 03:31:53;;;;;;;2.40;2.20;;;;;;;15.88;80.41;98948.72;1715530;82;21020;-72
2022/10/01 03:34:20;;;;;;;2.12;2.02;;;;;;;15.89;80.38;98940.99;1699320;82;21756;-72
2022/10/01 03:36:47;;;;;;;2.42;2.30;;;;;;;15.85;80.37;98945.12;1704523;82;20976;-71
2022/10/01 03:39:14;;;;;;;2.37;2.20;;;;;;;15.81;80.47;98951.98;1705829;82;20988;-71
2022/10/01 03:41:41;;;;;;;2.70;2.15;;;;;;;15.77;80.49;98949.41;1705698;82;21427;-72
2022/10/01 03:44:07;;;;;;;2.27;2.17;;;;;;;15.75;80.61;98952.83;1703657;82;21016;-72
2022/10/01 03:46:35;;;;;;;2.40;2.10;;;;;;;15.72;80.63;98956.48;1721958;82;21109;-71
2022/10/01 03:49:02;;;;;;;3.00;2.80;;;;;;;15.69;80.51;98959.59;1703406;82;20999;-72
2022/10/01 03:51:29;;;;;;;2.22;2.02;;;;;;;15.67;80.35;98945.58;1703005;82;21436;-71
2022/10/01 03:53:56;;;;;;;2.60;2.40;;;;;;;15.62;80.40;98951.56;1708177;82;21036;-73
2022/10/01 03:56:22;;;;;;;2.20;2.00;;;;;;;15.57;80.48;98943.34;1724561;82;21045;-71
2022/10/01 03:58:49;;;;;;;3.10;2.80;;;;;;;15.51;80.48;98940.20;1706433;82;21155;-73
2022/10/01 04:01:16;;;;;;;2.47;2.30;;;;;;;15.43;80.49;98944.44;1716511;82;21482;-72
2022/10/01 04:03:44;;;;;;;3.10;2.83;;;;;;;15.35;80.54;98950.05;1706553;82;20948;-71
2022/10/01 04:06:11;;;;;;;2.47;2.30;;;;;;;15.29;80.68;98949.55;1699842;82;20902;-72
2022/10/01 04:08:37;;;;;;;3.12;2.42;;;;;;;15.25;80.80;98942.98;1702892;82;20957;-72
2022/10/01 04:11:05;;;;;;;2.45;2.30;;;;;;;15.21;80.83;98935.88;1704785;82;21549;-72
2022/10/01 04:13:34;;;;;;;2.60;2.40;;;;;;;15.19;80.94;98936.62;1705185;82;21012;-71
2022/10/01 04:16:02;;;;;;;2.22;2.12;;;;;;;15.19;80.92;98937.95;1707359;82;21656;-72
2022/10/01 04:18:28;;;;;;;2.62;2.45;;;;;;;15.19;80.96;98921.88;1703348;81;20894;-73
2022/10/01 04:20:55;;;;;;;4.00;2.45;;;;;;;15.16;80.94;98913.44;1747043;80;20934;-71
2022/10/01 04:23:21;;;;;;;2.98;2.77;;;;;;;15.11;80.96;98906.55;1759237;80;21124;-71
2022/10/01 04:25:48;;;;;;;3.92;2.80;;;;;;;15.08;80.99;98914.50;1759164;80;20867;-71
2022/10/01 04:28:14;;;;;;;3.10;2.80;;;;;;;15.06;81.06;98923.78;1759347;80;20954;-72
2022/10/01 04:30:42;;;;;;;2.95;2.75;;;;;;;15.04;81.12;98932.05;1757938;80;21447;-73
2022/10/01 04:33:12;;;;;;;4.35;2.67;;;;;;;15.05;81.32;98934.18;1753960;80;20997;-72
2022/10/01 04:35:39;;;;;;;3.27;2.80;;;;;;;15.09;81.50;98936.76;1757730;80;21898;-72
2022/10/01 04:38:11;;;;;;;2.37;2.17;;;;;;;15.16;81.62;98944.24;1756975;80;21499;-71
2022/10/01 04:40:38;;;;;;;2.25;2.05;;;;;;;15.24;81.53;98956.89;1758739;80;20868;-71
2022/10/01 04:43:08;;;;;;;2.40;2.20;;;;;;;15.33;81.49;98949.41;1759242;80;21010;-73
2022/10/01 04:45:35;;;;;;;3.02;2.72;;;;;;;15.41;81.38;98945.16;1758618;80;20989;-72
2022/10/01 04:48:02;;;;;;;2.72;2.52;;;;;;;15.48;81.08;98943.83;1758881;80;21076;-70
2022/10/01 04:50:28;;;;;;;2.80;2.60;;;;;;;15.50;80.81;98945.25;1757687;80;21466;-71
2022/10/01 04:52:55;;;;;;;2.65;2.45;;;;;;;15.49;80.61;98948.95;1759482;80;20949;-71
2022/10/01 04:55:22;;;;;;;3.47;2.95;;;;;;;15.47;80.50;98955.57;1759238;80;20962;-71
2022/10/01 04:57:49;;;;;;;3.17;2.98;;;;;;;15.43;80.39;98949.80;1759231;80;20938;-73
2022/10/01 05:00:19;;;;;;;3.87;2.98;;;;;;;15.39;80.50;98948.06;1757372;80;21125;-73
2022/10/01 05:02:48;;;;;;;4.15;3.45;;;;;;;15.38;80.64;98953.64;1759167;80;20983;-71
2022/10/01 05:05:15;;;;;;;4.30;3.90;;;;;;;15.37;80.68;98962.20;1759326;80;20951;-72
2022/10/01 05:07:41;;;;;;;4.83;4.40;;;;;;;15.35;80.72;98964.27;1758004;80;21488;-71
2022/10/01 05:10:15;;;;;;;8.13;4.30;;;;;;;15.35;80.74;98964.27;1756140;80;21001;-73
2022/10/01 05:12:42;;;;;;;4.35;3.75;;;;;;;15.35;80.75;98954.89;1752626;81;21886;-71
2022/10/01 05:15:10;;;;;;;3.87;3.55;;;;;;;15.37;80.75;98957.34;1757659;81;21066;-71
2022/10/01 05:17:36;;;;;;;3.72;3.42;;;;;;;15.37;80.78;98960.86;1757281;81;21011;-71
2022/10/01 05:20:04;;;;;;;3.40;3.10;;;;;;;15.37;80.92;98951.98;1757033;81;21610;-70
2022/10/01 05:22:31;;;;;;;3.75;3.35;;;;;;;15.38;80.99;98949.08;1720290;82;21609;-72
2022/10/01 05:24:58;;;;;;;3.67;3.37;;;;;;;15.39;80.98;98956.61;1774152;80;21123;-73
2022/10/01 05:27:26;;;;;;;3.55;3.25;;;;;;;15.40;80.94;98963.12;1752845;81;21002;-70
2022/10/01 05:29:55;;;;;;;4.28;3.85;;;;;;;15.41;80.96;98967.42;1739201;81;21017;-72
2022/10/01 05:32:23;;;;;;;3.70;3.40;;;;;;;15.39;80.92;98972.18;1711242;82;21001;-71
2022/10/01 05:34:50;;;;;;;4.53;3.70;;;;;;;15.38;80.95;98973.75;1729531;81;20980;-71
2022/10/01 05:37:18;;;;;;;3.95;3.65;;;;;;;15.37;81.15;98978.28;1732350;81;21774;-72
2022/10/01 05:39:44;;;;;;;4.08;3.67;;;;;;;15.41;81.12;98979.99;1721479;81;20924;-71
2022/10/01 05:42:11;;;;;;;4.10;3.77;;;;;;;15.44;81.08;98973.70;1732491;81;21086;-73
2022/10/01 05:44:44;;;;;;;5.55;5.10;;;;;;;15.48;81.01;98971.45;1731809;81;21078;-72
2022/10/01 05:47:07;;;;;;;5.15;4.65;;;;;;;15.51;81.02;98979.08;1722156;81;20897;-72
2022/10/01 05:49:33;;;;;;;7.47;6.22;;;;;;;15.54;80.94;98982.64;1766038;80;21181;-72
2022/10/01 05:52:00;;;;;;;7.12;6.53;;;;;;;15.57;80.76;98979.54;1727328;81;20873;-73
2022/10/01 05:54:28;;;;;;;6.75;6.25;;;;;;;15.58;80.67;98981.20;1730737;81;20998;-71
2022/10/01 05:56:57;;;;;;;6.55;6.05;;;;;;;15.59;80.64;98988.19;1740414;80;21029;-72
2022/10/01 05:59:23;;;;;;;7.20;6.60;;;;;;;15.59;80.57;98986.05;1725686;81;21064;-72
2022/10/01 06:01:50;;;;;;;6.10;5.60;;;;;;;15.60;80.48;98983.66;1734470;81;21768;-73
2022/10/01 06:04:17;;;;;;;6.00;5.50;;;;;;;15.58;80.42;98984.39;1769099;80;20922;-73
2022/10/01 06:06:43;;;;;;;6.05;5.12;;;;;;;15.58;80.42;98979.86;1743480;81;21025;-72
2022/10/01 06:09:09;;;;;;;5.03;4.62;;;;;;;15.58;80.42;98970.47;1699429;84;21044;-72
2022/10/01 06:11:37;;;;;;;7.72;4.67;;;;;;;15.60;80.44;98966.22;1756175;80;21514;-72
2022/10/01 06:14:03;;;;;;;4.60;4.20;;;;;;;15.60;80.37;98969.73;1730876;81;21137;-72
2022/10/01 06:16:30;;;;;;;5.03;4.22;;;;;;;15.59;80.38;98970.76;1735249;81;20870;-72
2022/10/01 06:18:57;;;;;;;4.80;4.40;;;;;;;15.59;80.39;98973.98;1734751;81;21093;-71
2022/10/01 06:21:24;;;;;;;4.62;4.22;;;;;;;15.58;80.39;98976.34;1740648;81;20939;-71
2022/10/01 06:23:50;;;;;;;4.72;4.30;;;;;;;15.57;80.50;98974.18;1741010;81;20891;-72
2022/10/01 06:26:17;;;;;;;4.35;3.95;;;;;;;15.57;80.59;98967.98;1741482;81;21770;-72
2022/10/01 06:28:43;;;;;;;4.47;4.08;;;;;;;15.59;80.60;98968.62;1739562;81;21023;-73
2022/10/01 06:31:11;;;;;;;4.80;4.40;;;;;;;15.62;80.55;98974.87;1744529;81;21457;-75
2022/10/01 06:33:38;;;;;;;4.65;4.25;;;;;;;15.67;80.53;98963.81;1718334;81;21039;-70
2022/10/01 06:36:05;;;;;;;5.70;5.10;;;;;;;15.71;80.40;98964.21;1727448;81;21038;-71
2022/10/01 06:38:32;;;;;;;4.28;3.92;;;;;;;15.75;80.32;98968.92;1741171;81;21155;-71
2022/10/01 06:40:59;;;;;;;10.13;5.17;;;;;;;15.81;80.15;98964.56;1752351;80;21561;-71
2022/10/01 06:43:27;;;;;;;6.65;4.80;;;;;;;15.85;80.07;98959.88;1754821;80;20930;-71
2022/10/01 06:45:55;;;;;;;7.67;4.95;;;;;;;15.90;80.09;98957.37;1732535;81;20954;-71
2022/10/01 06:48:22;;;;;;;6.15;5.15;;;;;;;15.96;80.01;98955.17;1726006;81;20900;-71
2022/10/01 06:50:49;;;;;;;5.65;5.08;;;;;;;16.02;79.83;98955.65;1716046;82;21770;-70
2022/10/01 06:53:16;;;;;;;6.55;5.35;;;;;;;16.07;79.64;98956.33;1740090;81;20969;-71
2022/10/01 06:55:42;;;;;;;5.90;5.40;;;;;;;16.11;79.48;98953.53;1769538;80;21409;-71
2022/10/01 06:58:16;;;;;;;6.50;5.67;;;;;;;16.16;79.35;98962.27;1732129;81;20864;-71
2022/10/01 07:00:42;;;;;;;5.20;4.80;;;;;;;16.17;79.17;98967.40;1707695;83;20932;-72
2022/10/01 07:03:13;;;;;;;5.83;5.33;;;;;;;16.20;79.00;98971.50;1721050;81;21442;-69
2022/10/01 07:05:40;;;;;;;5.47;4.97;;;;;;;16.23;78.89;98981.80;1709394;81;21647;-71
2022/10/01 07:08:06;;;;;;;6.40;5.90;;;;;;;16.23;78.73;98979.95;1720854;81;20986;-75
2022/10/01 07:10:35;;;;;;;5.50;5.10;;;;;;;16.23;78.63;98973.75;1734316;81;20998;-71
2022/10/01 07:13:19;;;;;;;7.00;6.40;;;;;;;16.24;78.62;98972.73;1733184;81;21001;-71
2022/10/01 07:15:44;;;;;;;6.55;6.00;;;;;;;16.24;78.50;98984.27;1761809;80;21255;-71
2022/10/01 07:18:10;;;;;;;7.90;6.05;;;;;;;16.20;78.50;98979.55;1748436;80;20911;-69
2022/10/01 07:20:40;;;;;;;5.95;5.45;;;;;;;16.18;78.63;98981.64;1730608;81;21473;-70
2022/10/01 07:23:10;;;;;;;5.78;5.28;;;;;;;16.17;78.67;98984.02;1672167;84;20998;-70
2022/10/01 07:25:38;;;;;;;6.08;5.58;;;;;;;16.16;78.69;98975.16;1710051;82;21001;-72
2022/10/01 07:28:06;;;;;;;12.50;5.55;;;;;;;16.11;78.78;98980.36;1702674;82;21156;-71
2022/10/01 07:30:32;;;;;;;6.83;6.22;;;;;;;16.11;78.94;98980.36;1711956;82;20898;-71
2022/10/01 07:32:59;;;;;;;7.20;6.50;;;;;;;16.08;79.04;98981.59;1703299;82;21376;-70
2022/10/01 07:35:26;;;;;;;7.83;7.03;;;;;;;16.08;79.16;98988.02;1703029;82;20976;-71
2022/10/01 07:37:54;;;;;;;7.92;7.20;;;;;;;16.04;79.37;98995.16;1702984;82;20902;-72
2022/10/01 07:40:20;;;;;;;7.60;6.97;;;;;;;16.01;79.54;98986.19;1703294;82;21191;-70
2022/10/01 07:42:55;;;;;;;7.67;6.90;;;;;;;16.04;79.76;98992.47;1702727;82;21111;-70
2022/10/01 07:45:22;;;;;;;11.08;7.03;;;;;;;16.04;79.91;98988.44;1703097;82;20915;-71
2022/10/01 07:47:57;;;;;;;8.03;7.22;;;;;;;16.06;79.95;98985.02;1703319;82;21021;-71
2022/10/01 07:50:24;;;;;;;7.75;7.08;;;;;;;16.08;80.10;98977.28;1702359;82;21907;-71
2022/10/01 07:52:56;;;;;;;7.55;6.87;;;;;;;16.08;80.30;98981.59;1703341;82;21104;-70
2022/10/01 07:55:25;;;;;;;9.43;7.33;;;;;;;16.11;80.28;98975.52;1672218;84;21018;-72
2022/10/01 07:57:54;;;;;;;8.38;7.50;;;;;;;16.12;80.41;98977.13;1701911;83;20874;-70
2022/10/01 08:00:21;;;;;;;7.65;6.95;;;;;;;16.11;80.46;98979.53;1671501;84;20970;-71
2022/10/01 08:02:49;;;;;;;7.78;7.08;;;;;;;16.11;80.58;98978.20;1700007;83;20987;-70
2022/10/01 08:05:19;;;;;;;7.80;7.10;;;;;;;16.05;80.74;98979.37;1702453;83;21581;-71
2022/10/01 08:07:46;;;;;;;7.60;7.00;;;;;;;16.06;80.88;98978.31;1701757;82;21021;-70
2022/10/01 08:10:13;;;;;;;8.10;7.40;;;;;;;16.07;81.14;98976.45;1701753;83;20958;-69
2022/10/01 08:12:43;;;;;;;7.37;6.67;;;;;;;16.08;81.28;98970.86;1698463;82;20946;-72
2022/10/01 08:15:13;;;;;;;7.25;6.55;;;;;;;16.12;81.36;98971.77;1675829;84;20922;-70
2022/10/01 08:17:39;;;;;;;6.33;5.83;;;;;;;16.12;81.46;98975.80;1672077;85;21128;-70
2022/10/01 08:20:08;;;;;;;7.17;5.65;;;;;;;16.11;81.62;98970.97;1701891;82;21700;-71
2022/10/01 08:22:34;;;;;;;5.55;5.15;;;;;;;16.12;81.73;98983.84;1697393;82;20967;-71
2022/10/01 08:25:04;;;;;;;6.70;5.47;;;;;;;16.11;81.82;98988.41;1720455;81;20900;-70
2022/10/01 08:27:30;;;;;;;7.17;5.70;;;;;;;16.10;81.83;98984.08;1721237;81;20890;-72
2022/10/01 08:29:57;;;;;;;4.70;4.30;;;;;;;16.10;81.96;98984.08;1722105;81;21835;-72
2022/10/01 08:32:24;;;;;;;5.33;4.83;;;;;;;16.09;81.98;98979.73;1717895;81;21038;-70
2022/10/01 08:34:54;;;;;;;5.33;4.60;;;;;;;16.11;82.04;98983.56;1723367;81;20998;-73
2022/10/01 08:37:19;;;;;;;4.97;4.58;;;;;;;16.08;82.11;98980.25;1730713;81;21572;-71
2022/10/01 08:39:46;;;;;;;6.75;5.03;;;;;;;16.11;82.19;98982.22;1727995;81;20985;-71
2022/10/01 08:42:21;;;;;;;4.55;4.12;;;;;;;16.12;82.22;98981.16;1730953;81;21244;-71
2022/10/01 08:44:48;;;;;;;4.80;4.42;;;;;;;16.14;82.24;98972.39;1716946;81;21449;-71
2022/10/01 08:47:29;;;;;;;4.50;4.10;;;;;;;16.16;82.37;98971.66;1721808;81;20983;-73
2022/10/01 08:49:59;;;;;;;4.62;4.22;;;;;;;16.17;82.33;98981.33;1735980;81;20962;-70
2022/10/01 08:52:32;;;;;;;4.85;4.37;;;;;;;16.18;82.43;98973.59;1692427;83;21002;-70
2022/10/01 08:55:12;;;;;;;5.47;4.83;;;;;;;16.20;82.46;98979.55;1713243;81;21909;-71
2022/10/01 08:57:42;;;;;;;4.70;4.28;;;;;;;16.25;82.43;98970.33;1721846;81;20959;-70
2022/10/01 09:00:16;;;;;;;6.17;5.28;;;;;;;16.28;82.43;98968.55;1721126;81;21015;-71
2022/10/01 09:02:45;;;;;;;5.42;4.22;;;;;;;16.31;82.51;98971.63;1726096;81;21005;-70
2022/10/01 09:05:34;;;;;;;7.37;4.65;;;;;;;16.38;82.59;98967.02;1728470;81;21508;-70
2022/10/01 09:08:21;;;;;;;4.22;3.83;;;;;;;16.45;82.50;98958.92;1722252;81;21155;-70
2022/10/01 09:11:03;;;;;;;4.75;4.35;;;;;;;16.52;82.50;98961.02;1715566;81;20922;-72
2022/10/01 09:14:09;;;;;;;4.40;4.10;;;;;;;16.60;82.55;98947.34;1722314;81;21043;-70
2022/10/01 09:17:00;;;;;;;4.20;3.80;;;;;;;16.66;82.36;98941.89;1732536;81;21033;-69
2022/10/01 09:19:39;;;;;;;4.22;3.90;;;;;;;16.79;82.06;98941.48;1720849;81;20967;-69
2022/10/01 09:22:24;;;;;;;5.08;3.22;;;;;;;17.00;82.16;98939.67;1718364;81;21085;-71
2022/10/01 09:25:02;;;;;;;3.52;3.22;;;;;;;17.54;81.97;98932.11;1711701;82;21052;-71
2022/10/01 09:27:29;;;;;;;3.90;3.60;;;;;;;18.31;80.69;98936.50;1706419;83;21002;-70
2022/10/01 09:30:06;;;;;;;4.25;3.85;;;;;;;19.13;78.37;98934.61;1686807;83;21583;-71
2022/10/01 09:32:40;;;;;;;3.37;3.08;;;;;;;19.74;76.33;98930.72;1728907;81;20990;-71
2022/10/01 09:35:21;;;;;;;4.12;3.05;;;;;;;20.13;73.75;98925.73;1719342;82;21139;-71
2022/10/01 09:38:04;;;;;;;2.72;2.50;;;;;;;20.22;71.94;98924.28;1737387;80;21516;-70
2022/10/01 09:40:39;;;;;;;3.67;3.37;;;;;;;20.30;70.54;98926.61;1749806;81;20942;-70
2022/10/01 09:43:09;;;;;;;2.85;2.60;;;;;;;20.27;69.65;98927.09;1728816;81;21465;-70
2022/10/01 09:45:36;;;;;;;3.12;2.83;;;;;;;20.18;68.81;98927.70;1732639;81;20986;-71
2022/10/01 09:48:17;;;;;;;2.62;2.42;;;;;;;20.00;68.58;98929.28;1720210;81;21145;-70
2022/10/01 09:50:57;;;;;;;2.92;2.00;;;;;;;19.89;68.70;98931.53;1719171;81;20983;-70
2022/10/01 09:53:19;;;;;;;2.50;2.30;;;;;;;19.82;68.65;98920.88;1732878;81;21551;-71
2022/10/01 09:55:53;;;;;;;2.12;2.00;;;;;;;19.75;68.73;98922.09;1722182;81;21015;-71
2022/10/01 09:58:23;;;;;;;3.12;1.90;;;;;;;19.72;68.89;98918.00;1722026;81;21030;-71
2022/10/01 10:00:52;;;;;;;2.35;2.10;;;;;;;19.76;68.62;98910.25;1720218;81;21114;-70
2022/10/01 10:03:29;;;;;;;2.75;2.05;;;;;;;19.73;68.44;98905.60;1721412;81;21539;-70
2022/10/01 10:06:01;;;;;;;2.12;1.92;;;;;;;19.73;68.56;98906.68;1722278;81;21100;-70
2022/10/01 10:08:34;;;;;;;1.77;1.67;;;;;;;19.72;68.66;98908.55;1722325;81;20971;-71
2022/10/01 10:11:04;;;;;;;1.57;1.47;;;;;;;19.75;68.45;98909.95;1722440;81;20972;-70
2022/10/01 10:13:40;;;;;;;1.60;1.32;;;;;;;19.67;68.29;98912.52;1725971;81;21875;-71
2022/10/01 10:16:28;;;;;;;1.98;1.42;;;;;;;19.54;68.26;98906.89;1720936;81;20895;-71
2022/10/01 10:18:59;;;;;;;2.05;1.65;;;;;;;19.42;68.84;98908.80;1723802;81;21496;-70
2022/10/01 10:21:29;;;;;;;1.70;1.60;;;;;;;19.34;69.22;98905.13;1737928;81;21014;-72
2022/10/01 10:23:58;;;;;;;2.87;1.82;;;;;;;19.32;69.66;98903.73;1724055;81;20978;-70
2022/10/01 10:26:37;;;;;;;2.77;2.05;;;;;;;19.39;69.72;98894.99;1747936;82;21744;-70
2022/10/01 10:29:07;;;;;;;2.00;1.80;;;;;;;19.52;69.63;98894.18;1747763;81;20967;-69
2022/10/01 10:31:45;;;;;;;1.72;1.52;;;;;;;19.64;69.38;98894.93;1747385;81;20931;-70
2022/10/01 10:34:30;;;;;;;1.70;1.60;;;;;;;19.77;69.01;98897.03;1747796;81;21492;-70
2022/10/01 10:36:59;;;;;;;2.83;1.30;;;;;;;19.89;68.41;98890.52;1714269;82;21038;-71
2022/10/01 10:39:29;;;;;;;1.70;1.60;;;;;;;19.96;67.98;98887.65;1747839;81;21778;-69
2022/10/01 10:41:56;;;;;;;3.52;1.65;;;;;;;20.03;67.97;98891.00;1747787;81;21533;-70
2022/10/01 10:44:24;;;;;;;2.08;1.70;;;;;;;20.14;68.01;98895.51;1747815;81;20888;-71
2022/10/01 10:46:52;;;;;;;3.83;1.80;;;;;;;20.24;67.95;98895.17;1747917;82;20900;-69
2022/10/01 10:49:30;;;;;;;2.08;1.90;;;;;;;20.37;67.55;98889.13;1747910;81;20955;-71
2022/10/01 10:51:59;;;;;;;1.90;1.70;;;;;;;20.47;67.33;98886.58;1747848;81;21178;-70
2022/10/01 10:54:36;;;;;;;2.40;2.15;;;;;;;20.55;66.81;98888.86;1747748;81;20971;-69
2022/10/01 10:57:27;;;;;;;1.90;1.77;;;;;;;20.66;66.26;98879.84;1747787;81;21034;-70
2022/10/01 11:00:00;;;;;;;3.62;1.52;;;;;;;20.66;65.45;98877.96;1739801;81;21501;-72
2022/10/01 11:02:29;;;;;;;1.67;1.37;;;;;;;20.57;64.79;98882.14;1747927;81;21050;-70
2022/10/01 11:05:07;;;;;;;1.50;1.40;;;;;;;20.46;64.77;98879.03;1747796;81;21138;-71
2022/10/01 11:07:33;;;;;;;1.40;1.30;;;;;;;20.35;64.94;98871.84;1747615;81;21028;-70
2022/10/01 11:10:21;;;;;;;1.60;1.50;;;;;;;20.21;65.07;98867.27;1747765;81;20987;-70
2022/10/01 11:13:17;;;;;;;1.62;1.52;;;;;;;20.12;65.22;98865.24;1737434;81;21470;-70
2022/10/01 11:15:49;;;;;;;1.47;1.37;;;;;;;20.08;65.39;98862.20;1747824;81;21729;-70
2022/10/01 11:19:10;;;;;;;1.40;1.30;;;;;;;20.05;65.76;98856.50;1747536;81;21805;-70
2022/10/01 11:21:47;;;;;;;3.72;1.57;;;;;;;20.05;65.76;98860.55;1747905;81;21562;-71
2022/10/01 11:24:41;;;;;;;3.55;1.60;;;;;;;20.07;66.15;98850.31;1740261;81;21241;-71
2022/10/01 11:27:35;;;;;;;1.10;1.00;;;;;;;20.13;66.57;98848.78;1739675;81;21549;-71
2022/10/01 11:30:24;;;;;;;1.32;1.22;;;;;;;20.15;66.24;98839.10;1730584;81;20964;-71
2022/10/01 11:33:09;;;;;;;1.30;1.20;;;;;;;20.12;65.82;98841.77;1739992;81;21143;-70
2022/10/01 11:35:59;;;;;;;3.08;1.52;;;;;;;20.06;65.62;98844.09;1697577;81;21528;-70
2022/10/01 11:38:49;;;;;;;2.17;1.32;;;;;;;19.99;65.48;98845.32;1732151;81;21016;-70
2022/10/01 11:41:38;;;;;;;1.20;1.10;;;;;;;19.90;65.49;98848.13;1739857;81;21505;-72
2022/10/01 11:44:28;;;;;;;1.37;1.27;;;;;;;19.87;65.71;98843.22;1739961;81;20944;-70
2022/10/01 11:47:08;;;;;;;2.17;1.27;;;;;;;19.87;65.91;98840.52;1740178;81;21154;-71
2022/10/01 11:49:56;;;;;;;1.57;1.47;;;;;;;19.82;66.04;98831.81;1725722;81;20927;-71
2022/10/01 11:52:57;;;;;;;3.67;1.22;;;;;;;19.77;66.20;98824.98;1739961;81;21015;-70
2022/10/01 11:58:52;;;;;;;1.90;1.80;;;;;;;19.59;66.46;98820.65;1739953;81;21013;-71
2022/10/01 12:01:46;;;;;;;1.57;1.45;;;;;;;19.52;66.72;98823.22;1739923;81;21984;-70